Terminal Aerodrome Forecast
Issued by NWS

Current Version | Previous Version | Text Only | Print | Product List | Glossary Off
Versions: 1 2 3 4 5 6 7 8 9 10 11 12 13 14 15 16 17 18 19 20 21 22 23

000
FTUS41 KRLX 281735
TAFCKB
TAF
KCKB 281735Z 2818/2918 VRB05KT P6SM FEW050
     FM290500 00000KT 6SM BR FEW060
     FM290800 00000KT 2SM BR SKC
     FM291300 VRB05KT P6SM SCT040=

USA.gov is the U.S. government's official web portal to all federal, state and local government web resources and services.